sensor_id;sensor_type;location;lat;lon;timestamp;P1;durP1;ratioP1;P2;durP2;ratioP2
11829;SDS011;5972;42.134;24.718;2023-02-28T00:00:37;14.85;;;6.20;;
11829;SDS011;5972;42.134;24.718;2023-02-28T00:03:05;20.40;;;6.20;;
11829;SDS011;5972;42.134;24.718;2023-02-28T00:05:32;10.95;;;6.15;;
11829;SDS011;5972;42.134;24.718;2023-02-28T00:08:00;20.98;;;6.30;;
11829;SDS011;5972;42.134;24.718;2023-02-28T00:10:28;15.25;;;5.20;;
11829;SDS011;5972;42.134;24.718;2023-02-28T00:12:59;15.10;;;5.80;;
11829;SDS011;5972;42.134;24.718;2023-02-28T00:15:28;11.00;;;5.93;;
11829;SDS011;5972;42.134;24.718;2023-02-28T00:17:55;14.73;;;5.93;;
11829;SDS011;5972;42.134;24.718;2023-02-28T00:20:22;16.75;;;6.40;;
11829;SDS011;5972;42.134;24.718;2023-02-28T00:22:51;15.45;;;6.40;;
11829;SDS011;5972;42.134;24.718;2023-02-28T00:25:21;15.77;;;5.70;;
11829;SDS011;5972;42.134;24.718;2023-02-28T00:27:50;12.18;;;5.70;;
11829;SDS011;5972;42.134;24.718;2023-02-28T00:30:18;12.85;;;5.80;;
11829;SDS011;5972;42.134;24.718;2023-02-28T00:32:46;12.70;;;6.10;;
11829;SDS011;5972;42.134;24.718;2023-02-28T00:35:14;13.55;;;5.97;;
11829;SDS011;5972;42.134;24.718;2023-02-28T00:37:41;13.10;;;5.50;;
11829;SDS011;5972;42.134;24.718;2023-02-28T00:40:08;16.48;;;6.35;;
11829;SDS011;5972;42.134;24.718;2023-02-28T00:42:38;11.00;;;5.75;;
11829;SDS011;5972;42.134;24.718;2023-02-28T00:45:06;9.38;;;6.18;;
11829;SDS011;5972;42.134;24.718;2023-02-28T00:47:34;16.35;;;6.68;;
11829;SDS011;5972;42.134;24.718;2023-02-28T00:50:01;13.65;;;6.07;;
11829;SDS011;5972;42.134;24.718;2023-02-28T00:52:28;11.80;;;6.07;;
11829;SDS011;5972;42.134;24.718;2023-02-28T00:54:55;14.82;;;5.97;;
11829;SDS011;5972;42.134;24.718;2023-02-28T00:57:22;15.30;;;5.95;;
11829;SDS011;5972;42.134;24.718;2023-02-28T00:59:51;12.90;;;6.45;;
11829;SDS011;5972;42.134;24.718;2023-02-28T01:02:19;10.73;;;5.93;;
11829;SDS011;5972;42.134;24.718;2023-02-28T01:04:46;10.38;;;6.05;;
11829;SDS011;5972;42.134;24.718;2023-02-28T01:07:13;21.90;;;5.85;;
11829;SDS011;5972;42.134;24.718;2023-02-28T01:09:40;11.25;;;5.90;;
11829;SDS011;5972;42.134;24.718;2023-02-28T01:12:08;9.68;;;5.70;;
11829;SDS011;5972;42.134;24.718;2023-02-28T01:14:34;14.15;;;5.47;;
11829;SDS011;5972;42.134;24.718;2023-02-28T01:17:03;12.63;;;5.63;;
11829;SDS011;5972;42.134;24.718;2023-02-28T01:19:30;14.38;;;6.03;;
11829;SDS011;5972;42.134;24.718;2023-02-28T01:21:59;16.55;;;5.75;;
11829;SDS011;5972;42.134;24.718;2023-02-28T01:24:27;10.40;;;5.57;;
11829;SDS011;5972;42.134;24.718;2023-02-28T01:26:54;18.30;;;6.45;;
11829;SDS011;5972;42.134;24.718;2023-02-28T01:29:21;12.40;;;5.75;;
11829;SDS011;5972;42.134;24.718;2023-02-28T01:31:48;12.05;;;6.00;;
11829;SDS011;5972;42.134;24.718;2023-02-28T01:34:17;15.55;;;6.00;;
11829;SDS011;5972;42.134;24.718;2023-02-28T01:36:44;13.25;;;5.82;;
11829;SDS011;5972;42.134;24.718;2023-02-28T01:39:11;11.20;;;5.90;;
11829;SDS011;5972;42.134;24.718;2023-02-28T01:41:39;12.90;;;5.55;;
11829;SDS011;5972;42.134;24.718;2023-02-28T01:44:06;13.73;;;5.53;;
11829;SDS011;5972;42.134;24.718;2023-02-28T01:46:53;10.75;;;5.45;;
11829;SDS011;5972;42.134;24.718;2023-02-28T01:49:22;16.60;;;5.80;;
11829;SDS011;5972;42.134;24.718;2023-02-28T01:51:50;13.27;;;5.13;;
11829;SDS011;5972;42.134;24.718;2023-02-28T01:54:22;11.45;;;5.63;;
11829;SDS011;5972;42.134;24.718;2023-02-28T01:56:53;14.33;;;5.80;;
11829;SDS011;5972;42.134;24.718;2023-02-28T01:59:25;20.25;;;7.15;;
11829;SDS011;5972;42.134;24.718;2023-02-28T02:01:56;15.98;;;7.40;;
11829;SDS011;5972;42.134;24.718;2023-02-28T02:04:25;14.73;;;6.85;;
11829;SDS011;5972;42.134;24.718;2023-02-28T02:06:58;13.20;;;7.50;;
11829;SDS011;5972;42.134;24.718;2023-02-28T02:09:26;20.88;;;7.55;;
11829;SDS011;5972;42.134;24.718;2023-02-28T02:11:52;15.65;;;7.25;;
11829;SDS011;5972;42.134;24.718;2023-02-28T02:14:26;15.40;;;7.88;;
11829;SDS011;5972;42.134;24.718;2023-02-28T02:17:07;16.98;;;7.90;;
11829;SDS011;5972;42.134;24.718;2023-02-28T02:19:52;20.70;;;7.13;;
11829;SDS011;5972;42.134;24.718;2023-02-28T02:22:50;23.97;;;8.07;;
11829;SDS011;5972;42.134;24.718;2023-02-28T02:25:31;13.03;;;7.80;;
11829;SDS011;5972;42.134;24.718;2023-02-28T02:28:17;16.30;;;6.87;;
11829;SDS011;5972;42.134;24.718;2023-02-28T02:34:32;17.43;;;7.20;;
11829;SDS011;5972;42.134;24.718;2023-02-28T02:37:14;21.93;;;6.60;;
11829;SDS011;5972;42.134;24.718;2023-02-28T02:39:48;18.30;;;6.53;;
11829;SDS011;5972;42.134;24.718;2023-02-28T02:42:19;19.07;;;6.87;;
11829;SDS011;5972;42.134;24.718;2023-02-28T02:44:52;15.83;;;6.80;;
11829;SDS011;5972;42.134;24.718;2023-02-28T02:47:25;16.00;;;7.03;;
11829;SDS011;5972;42.134;24.718;2023-02-28T02:49:57;18.13;;;7.17;;
11829;SDS011;5972;42.134;24.718;2023-02-28T02:52:29;12.10;;;7.00;;
11829;SDS011;5972;42.134;24.718;2023-02-28T02:55:01;17.50;;;6.53;;
11829;SDS011;5972;42.134;24.718;2023-02-28T02:57:31;14.80;;;7.63;;
11829;SDS011;5972;42.134;24.718;2023-02-28T03:00:03;14.70;;;7.57;;
11829;SDS011;5972;42.134;24.718;2023-02-28T03:02:33;19.93;;;8.00;;
11829;SDS011;5972;42.134;24.718;2023-02-28T03:05:04;15.97;;;8.43;;
11829;SDS011;5972;42.134;24.718;2023-02-28T03:07:38;14.60;;;8.50;;
11829;SDS011;5972;42.134;24.718;2023-02-28T03:12:57;16.40;;;7.57;;
11829;SDS011;5972;42.134;24.718;2023-02-28T03:15:36;12.93;;;7.60;;
11829;SDS011;5972;42.134;24.718;2023-02-28T03:18:18;18.80;;;8.90;;
11829;SDS011;5972;42.134;24.718;2023-02-28T03:20:54;14.13;;;8.30;;
11829;SDS011;5972;42.134;24.718;2023-02-28T03:23:29;17.53;;;9.63;;
11829;SDS011;5972;42.134;24.718;2023-02-28T03:26:05;21.13;;;9.13;;
11829;SDS011;5972;42.134;24.718;2023-02-28T03:28:39;14.80;;;9.50;;
11829;SDS011;5972;42.134;24.718;2023-02-28T03:31:18;20.40;;;9.50;;
11829;SDS011;5972;42.134;24.718;2023-02-28T03:33:49;11.90;;;8.40;;
11829;SDS011;5972;42.134;24.718;2023-02-28T03:36:24;13.20;;;7.37;;
11829;SDS011;5972;42.134;24.718;2023-02-28T03:38:56;19.30;;;9.80;;
11829;SDS011;5972;42.134;24.718;2023-02-28T03:41:29;14.70;;;8.97;;
11829;SDS011;5972;42.134;24.718;2023-02-28T03:44:07;15.20;;;9.63;;
11829;SDS011;5972;42.134;24.718;2023-02-28T03:46:41;14.20;;;9.50;;
11829;SDS011;5972;42.134;24.718;2023-02-28T03:49:14;15.57;;;8.07;;
11829;SDS011;5972;42.134;24.718;2023-02-28T03:51:46;18.53;;;10.30;;
11829;SDS011;5972;42.134;24.718;2023-02-28T03:54:17;16.87;;;8.50;;
11829;SDS011;5972;42.134;24.718;2023-02-28T03:56:48;16.13;;;10.67;;
11829;SDS011;5972;42.134;24.718;2023-02-28T03:59:20;13.50;;;8.97;;
11829;SDS011;5972;42.134;24.718;2023-02-28T04:01:52;17.00;;;9.77;;
11829;SDS011;5972;42.134;24.718;2023-02-28T04:04:20;13.57;;;9.20;;
11829;SDS011;5972;42.134;24.718;2023-02-28T04:06:51;22.37;;;10.77;;
11829;SDS011;5972;42.134;24.718;2023-02-28T04:09:18;20.53;;;11.20;;
11829;SDS011;5972;42.134;24.718;2023-02-28T04:11:45;18.90;;;10.10;;
11829;SDS011;5972;42.134;24.718;2023-02-28T04:14:17;19.20;;;10.00;;
11829;SDS011;5972;42.134;24.718;2023-02-28T04:16:44;16.70;;;9.73;;
11829;SDS011;5972;42.134;24.718;2023-02-28T04:19:12;13.47;;;9.07;;
11829;SDS011;5972;42.134;24.718;2023-02-28T04:21:40;16.90;;;9.77;;
11829;SDS011;5972;42.134;24.718;2023-02-28T04:24:11;17.83;;;9.40;;
11829;SDS011;5972;42.134;24.718;2023-02-28T04:26:40;15.97;;;9.13;;
11829;SDS011;5972;42.134;24.718;2023-02-28T04:29:09;15.37;;;9.30;;
11829;SDS011;5972;42.134;24.718;2023-02-28T04:31:36;14.13;;;8.80;;
11829;SDS011;5972;42.134;24.718;2023-02-28T04:34:03;20.27;;;8.63;;
11829;SDS011;5972;42.134;24.718;2023-02-28T04:36:30;18.37;;;9.57;;
11829;SDS011;5972;42.134;24.718;2023-02-28T04:38:58;14.10;;;9.00;;
11829;SDS011;5972;42.134;24.718;2023-02-28T04:41:26;14.57;;;9.53;;
11829;SDS011;5972;42.134;24.718;2023-02-28T04:43:53;14.97;;;8.47;;
11829;SDS011;5972;42.134;24.718;2023-02-28T04:46:21;13.90;;;8.13;;
11829;SDS011;5972;42.134;24.718;2023-02-28T04:48:48;15.47;;;9.60;;
11829;SDS011;5972;42.134;24.718;2023-02-28T04:51:15;13.87;;;8.03;;
11829;SDS011;5972;42.134;24.718;2023-02-28T04:53:43;12.43;;;8.50;;
11829;SDS011;5972;42.134;24.718;2023-02-28T04:56:11;13.83;;;9.93;;
11829;SDS011;5972;42.134;24.718;2023-02-28T04:58:41;14.23;;;9.40;;
11829;SDS011;5972;42.134;24.718;2023-02-28T05:01:15;13.07;;;8.70;;
11829;SDS011;5972;42.134;24.718;2023-02-28T05:03:45;11.97;;;9.60;;
11829;SDS011;5972;42.134;24.718;2023-02-28T05:06:12;14.13;;;7.87;;
11829;SDS011;5972;42.134;24.718;2023-02-28T05:08:39;12.07;;;8.33;;
11829;SDS011;5972;42.134;24.718;2023-02-28T05:11:08;12.73;;;7.63;;
11829;SDS011;5972;42.134;24.718;2023-02-28T05:13:42;14.70;;;8.13;;
11829;SDS011;5972;42.134;24.718;2023-02-28T05:16:09;13.13;;;9.00;;
11829;SDS011;5972;42.134;24.718;2023-02-28T05:18:36;10.20;;;8.53;;
11829;SDS011;5972;42.134;24.718;2023-02-28T05:21:03;11.90;;;8.90;;
11829;SDS011;5972;42.134;24.718;2023-02-28T05:23:30;10.50;;;8.67;;
11829;SDS011;5972;42.134;24.718;2023-02-28T05:25:57;13.73;;;8.80;;
11829;SDS011;5972;42.134;24.718;2023-02-28T05:28:24;13.83;;;8.33;;
11829;SDS011;5972;42.134;24.718;2023-02-28T05:30:53;17.23;;;8.10;;
11829;SDS011;5972;42.134;24.718;2023-02-28T05:33:19;16.00;;;9.77;;
11829;SDS011;5972;42.134;24.718;2023-02-28T05:35:46;20.37;;;9.13;;
11829;SDS011;5972;42.134;24.718;2023-02-28T05:38:13;14.60;;;8.97;;
11829;SDS011;5972;42.134;24.718;2023-02-28T05:40:40;9.80;;;6.60;;
11829;SDS011;5972;42.134;24.718;2023-02-28T05:43:09;15.20;;;8.60;;
11829;SDS011;5972;42.134;24.718;2023-02-28T05:45:37;14.73;;;8.63;;
11829;SDS011;5972;42.134;24.718;2023-02-28T05:48:05;18.27;;;9.03;;
11829;SDS011;5972;42.134;24.718;2023-02-28T05:50:32;18.97;;;10.93;;
11829;SDS011;5972;42.134;24.718;2023-02-28T05:52:59;21.57;;;10.57;;
11829;SDS011;5972;42.134;24.718;2023-02-28T05:55:26;13.27;;;10.07;;
11829;SDS011;5972;42.134;24.718;2023-02-28T05:57:53;16.43;;;9.40;;
11829;SDS011;5972;42.134;24.718;2023-02-28T06:00:20;13.37;;;9.23;;
11829;SDS011;5972;42.134;24.718;2023-02-28T06:02:47;15.80;;;10.57;;
11829;SDS011;5972;42.134;24.718;2023-02-28T06:05:16;17.30;;;10.87;;
11829;SDS011;5972;42.134;24.718;2023-02-28T06:07:44;17.03;;;11.67;;
11829;SDS011;5972;42.134;24.718;2023-02-28T06:10:11;15.30;;;10.30;;
11829;SDS011;5972;42.134;24.718;2023-02-28T06:12:38;15.77;;;9.37;;
11829;SDS011;5972;42.134;24.718;2023-02-28T06:15:07;16.13;;;11.13;;
11829;SDS011;5972;42.134;24.718;2023-02-28T06:17:36;17.03;;;11.30;;
11829;SDS011;5972;42.134;24.718;2023-02-28T06:20:04;15.70;;;9.27;;
11829;SDS011;5972;42.134;24.718;2023-02-28T06:22:33;14.43;;;9.30;;
11829;SDS011;5972;42.134;24.718;2023-02-28T06:25:01;15.07;;;9.57;;
11829;SDS011;5972;42.134;24.718;2023-02-28T06:27:28;11.23;;;7.63;;
11829;SDS011;5972;42.134;24.718;2023-02-28T06:29:56;14.63;;;10.73;;
11829;SDS011;5972;42.134;24.718;2023-02-28T06:32:23;17.77;;;11.43;;
11829;SDS011;5972;42.134;24.718;2023-02-28T06:34:51;16.10;;;10.03;;
11829;SDS011;5972;42.134;24.718;2023-02-28T06:37:18;18.20;;;11.40;;
11829;SDS011;5972;42.134;24.718;2023-02-28T06:39:47;14.10;;;9.60;;
11829;SDS011;5972;42.134;24.718;2023-02-28T06:42:13;18.40;;;8.57;;
11829;SDS011;5972;42.134;24.718;2023-02-28T06:44:40;15.20;;;9.93;;
11829;SDS011;5972;42.134;24.718;2023-02-28T06:47:08;16.73;;;10.80;;
11829;SDS011;5972;42.134;24.718;2023-02-28T06:49:35;16.83;;;10.73;;
11829;SDS011;5972;42.134;24.718;2023-02-28T06:52:04;17.20;;;10.63;;
11829;SDS011;5972;42.134;24.718;2023-02-28T06:54:31;15.77;;;9.37;;
11829;SDS011;5972;42.134;24.718;2023-02-28T06:57:00;17.03;;;8.73;;
11829;SDS011;5972;42.134;24.718;2023-02-28T06:59:26;15.30;;;9.57;;
11829;SDS011;5972;42.134;24.718;2023-02-28T07:01:53;17.93;;;11.67;;
11829;SDS011;5972;42.134;24.718;2023-02-28T07:04:21;17.97;;;10.77;;
11829;SDS011;5972;42.134;24.718;2023-02-28T07:06:48;16.70;;;12.33;;
11829;SDS011;5972;42.134;24.718;2023-02-28T07:09:15;21.27;;;11.33;;
11829;SDS011;5972;42.134;24.718;2023-02-28T07:11:44;21.20;;;12.80;;
11829;SDS011;5972;42.134;24.718;2023-02-28T07:14:12;20.57;;;12.80;;
11829;SDS011;5972;42.134;24.718;2023-02-28T07:16:39;23.77;;;13.53;;
11829;SDS011;5972;42.134;24.718;2023-02-28T07:19:06;19.33;;;11.97;;
11829;SDS011;5972;42.134;24.718;2023-02-28T07:21:33;17.73;;;13.03;;
11829;SDS011;5972;42.134;24.718;2023-02-28T07:24:00;16.10;;;11.90;;
11829;SDS011;5972;42.134;24.718;2023-02-28T07:26:26;15.27;;;10.97;;
11829;SDS011;5972;42.134;24.718;2023-02-28T07:28:53;15.37;;;10.97;;
11829;SDS011;5972;42.134;24.718;2023-02-28T07:31:22;12.93;;;9.70;;
11829;SDS011;5972;42.134;24.718;2023-02-28T07:33:48;16.07;;;10.53;;
11829;SDS011;5972;42.134;24.718;2023-02-28T07:36:16;15.23;;;11.17;;
11829;SDS011;5972;42.134;24.718;2023-02-28T07:38:45;16.50;;;10.73;;
11829;SDS011;5972;42.134;24.718;2023-02-28T07:41:15;18.83;;;12.07;;
11829;SDS011;5972;42.134;24.718;2023-02-28T07:43:42;18.67;;;12.60;;
11829;SDS011;5972;42.134;24.718;2023-02-28T07:46:10;21.70;;;12.63;;
11829;SDS011;5972;42.134;24.718;2023-02-28T07:48:41;17.57;;;11.93;;
11829;SDS011;5972;42.134;24.718;2023-02-28T07:51:08;21.40;;;12.00;;
11829;SDS011;5972;42.134;24.718;2023-02-28T07:53:35;22.83;;;13.80;;
11829;SDS011;5972;42.134;24.718;2023-02-28T07:56:03;27.90;;;12.70;;
11829;SDS011;5972;42.134;24.718;2023-02-28T07:58:30;24.07;;;14.97;;
11829;SDS011;5972;42.134;24.718;2023-02-28T08:01:00;22.00;;;12.63;;
11829;SDS011;5972;42.134;24.718;2023-02-28T08:03:32;23.00;;;13.03;;
11829;SDS011;5972;42.134;24.718;2023-02-28T08:06:01;27.23;;;15.97;;
11829;SDS011;5972;42.134;24.718;2023-02-28T08:08:29;26.23;;;14.83;;
11829;SDS011;5972;42.134;24.718;2023-02-28T08:10:57;23.67;;;13.27;;
11829;SDS011;5972;42.134;24.718;2023-02-28T08:13:26;19.10;;;14.10;;
11829;SDS011;5972;42.134;24.718;2023-02-28T08:15:53;21.50;;;13.87;;
11829;SDS011;5972;42.134;24.718;2023-02-28T08:18:20;21.03;;;12.10;;
11829;SDS011;5972;42.134;24.718;2023-02-28T08:20:48;19.93;;;13.70;;
11829;SDS011;5972;42.134;24.718;2023-02-28T08:23:16;19.70;;;12.90;;
11829;SDS011;5972;42.134;24.718;2023-02-28T08:25:44;18.97;;;13.73;;
11829;SDS011;5972;42.134;24.718;2023-02-28T08:28:11;20.23;;;11.73;;
11829;SDS011;5972;42.134;24.718;2023-02-28T08:30:38;18.27;;;12.33;;
11829;SDS011;5972;42.134;24.718;2023-02-28T08:33:06;19.73;;;12.60;;
11829;SDS011;5972;42.134;24.718;2023-02-28T08:35:35;22.40;;;13.00;;
11829;SDS011;5972;42.134;24.718;2023-02-28T08:38:02;20.93;;;13.27;;
11829;SDS011;5972;42.134;24.718;2023-02-28T08:40:30;26.00;;;13.93;;
11829;SDS011;5972;42.134;24.718;2023-02-28T08:42:57;26.17;;;14.37;;
11829;SDS011;5972;42.134;24.718;2023-02-28T08:45:24;20.37;;;13.37;;
11829;SDS011;5972;42.134;24.718;2023-02-28T08:47:51;22.23;;;13.93;;
11829;SDS011;5972;42.134;24.718;2023-02-28T08:50:20;25.37;;;14.30;;
11829;SDS011;5972;42.134;24.718;2023-02-28T08:52:47;22.23;;;13.43;;
11829;SDS011;5972;42.134;24.718;2023-02-28T08:55:14;21.37;;;14.47;;
11829;SDS011;5972;42.134;24.718;2023-02-28T08:57:42;19.47;;;12.10;;
11829;SDS011;5972;42.134;24.718;2023-02-28T09:00:10;21.87;;;12.80;;
11829;SDS011;5972;42.134;24.718;2023-02-28T09:02:38;24.73;;;14.40;;
11829;SDS011;5972;42.134;24.718;2023-02-28T09:05:08;17.87;;;12.77;;
11829;SDS011;5972;42.134;24.718;2023-02-28T09:07:34;28.57;;;16.07;;
11829;SDS011;5972;42.134;24.718;2023-02-28T09:10:01;24.67;;;14.10;;
11829;SDS011;5972;42.134;24.718;2023-02-28T09:12:28;24.60;;;14.97;;
11829;SDS011;5972;42.134;24.718;2023-02-28T09:15:02;24.57;;;13.50;;
11829;SDS011;5972;42.134;24.718;2023-02-28T09:17:30;23.23;;;14.87;;
11829;SDS011;5972;42.134;24.718;2023-02-28T09:19:57;20.83;;;14.30;;
11829;SDS011;5972;42.134;24.718;2023-02-28T09:22:24;22.40;;;13.60;;
11829;SDS011;5972;42.134;24.718;2023-02-28T09:24:51;17.47;;;15.00;;
11829;SDS011;5972;42.134;24.718;2023-02-28T09:27:18;22.53;;;15.30;;
11829;SDS011;5972;42.134;24.718;2023-02-28T09:29:45;22.60;;;15.50;;
11829;SDS011;5972;42.134;24.718;2023-02-28T09:32:13;23.40;;;15.83;;
11829;SDS011;5972;42.134;24.718;2023-02-28T09:34:40;19.17;;;14.73;;
11829;SDS011;5972;42.134;24.718;2023-02-28T09:37:07;22.50;;;13.70;;
11829;SDS011;5972;42.134;24.718;2023-02-28T09:39:34;16.70;;;12.13;;
11829;SDS011;5972;42.134;24.718;2023-02-28T09:42:01;22.53;;;15.13;;
11829;SDS011;5972;42.134;24.718;2023-02-28T09:44:30;25.57;;;13.33;;
11829;SDS011;5972;42.134;24.718;2023-02-28T09:47:05;19.40;;;15.47;;
11829;SDS011;5972;42.134;24.718;2023-02-28T09:49:38;23.13;;;14.60;;
11829;SDS011;5972;42.134;24.718;2023-02-28T09:52:09;26.33;;;15.97;;
11829;SDS011;5972;42.134;24.718;2023-02-28T09:54:38;24.60;;;15.50;;
11829;SDS011;5972;42.134;24.718;2023-02-28T09:57:06;26.90;;;15.80;;
11829;SDS011;5972;42.134;24.718;2023-02-28T09:59:50;18.00;;;12.90;;
11829;SDS011;5972;42.134;24.718;2023-02-28T10:02:38;20.53;;;14.37;;
11829;SDS011;5972;42.134;24.718;2023-02-28T10:05:15;25.50;;;14.83;;
11829;SDS011;5972;42.134;24.718;2023-02-28T10:07:48;23.13;;;14.97;;
11829;SDS011;5972;42.134;24.718;2023-02-28T10:10:26;21.13;;;15.00;;
11829;SDS011;5972;42.134;24.718;2023-02-28T10:12:59;20.90;;;13.07;;
11829;SDS011;5972;42.134;24.718;2023-02-28T10:15:29;24.40;;;15.50;;
11829;SDS011;5972;42.134;24.718;2023-02-28T10:17:59;20.70;;;13.93;;
11829;SDS011;5972;42.134;24.718;2023-02-28T10:20:30;25.50;;;14.40;;
11829;SDS011;5972;42.134;24.718;2023-02-28T10:23:02;24.03;;;17.13;;
11829;SDS011;5972;42.134;24.718;2023-02-28T10:25:36;26.77;;;17.67;;
11829;SDS011;5972;42.134;24.718;2023-02-28T10:28:13;21.67;;;15.17;;
11829;SDS011;5972;42.134;24.718;2023-02-28T10:30:43;25.07;;;16.23;;
11829;SDS011;5972;42.134;24.718;2023-02-28T10:33:19;24.80;;;18.17;;
11829;SDS011;5972;42.134;24.718;2023-02-28T10:35:50;25.80;;;16.37;;
11829;SDS011;5972;42.134;24.718;2023-02-28T10:38:18;20.20;;;13.47;;
11829;SDS011;5972;42.134;24.718;2023-02-28T10:40:46;23.47;;;15.63;;
11829;SDS011;5972;42.134;24.718;2023-02-28T10:43:21;30.10;;;18.87;;
11829;SDS011;5972;42.134;24.718;2023-02-28T10:46:01;25.70;;;15.60;;
11829;SDS011;5972;42.134;24.718;2023-02-28T10:48:33;25.57;;;17.13;;
11829;SDS011;5972;42.134;24.718;2023-02-28T10:51:04;24.03;;;17.10;;
11829;SDS011;5972;42.134;24.718;2023-02-28T10:53:34;20.37;;;15.77;;
11829;SDS011;5972;42.134;24.718;2023-02-28T10:56:12;27.90;;;18.27;;
11829;SDS011;5972;42.134;24.718;2023-02-28T10:58:47;30.83;;;18.97;;
11829;SDS011;5972;42.134;24.718;2023-02-28T11:01:18;23.97;;;17.13;;
11829;SDS011;5972;42.134;24.718;2023-02-28T11:03:47;30.17;;;17.53;;
11829;SDS011;5972;42.134;24.718;2023-02-28T11:06:19;21.80;;;16.63;;
11829;SDS011;5972;42.134;24.718;2023-02-28T11:08:49;31.20;;;18.83;;
11829;SDS011;5972;42.134;24.718;2023-02-28T11:11:19;28.33;;;16.03;;
11829;SDS011;5972;42.134;24.718;2023-02-28T11:13:49;26.40;;;17.30;;
11829;SDS011;5972;42.134;24.718;2023-02-28T11:16:18;28.17;;;17.50;;
11829;SDS011;5972;42.134;24.718;2023-02-28T11:18:47;35.47;;;18.27;;
11829;SDS011;5972;42.134;24.718;2023-02-28T11:21:17;25.73;;;17.97;;
11829;SDS011;5972;42.134;24.718;2023-02-28T11:23:49;27.73;;;18.40;;
11829;SDS011;5972;42.134;24.718;2023-02-28T11:29:12;27.27;;;15.57;;
11829;SDS011;5972;42.134;24.718;2023-02-28T11:31:49;28.67;;;15.97;;
11829;SDS011;5972;42.134;24.718;2023-02-28T11:34:42;27.90;;;19.50;;
11829;SDS011;5972;42.134;24.718;2023-02-28T11:37:13;25.47;;;16.13;;
11829;SDS011;5972;42.134;24.718;2023-02-28T11:39:42;21.73;;;15.70;;
11829;SDS011;5972;42.134;24.718;2023-02-28T11:45:07;28.93;;;20.07;;
11829;SDS011;5972;42.134;24.718;2023-02-28T11:47:45;30.40;;;21.43;;
11829;SDS011;5972;42.134;24.718;2023-02-28T11:50:24;29.33;;;20.20;;
11829;SDS011;5972;42.134;24.718;2023-02-28T11:53:05;28.33;;;21.07;;
11829;SDS011;5972;42.134;24.718;2023-02-28T11:55:41;34.60;;;21.53;;
11829;SDS011;5972;42.134;24.718;2023-02-28T11:58:16;30.97;;;21.50;;
11829;SDS011;5972;42.134;24.718;2023-02-28T12:00:57;29.43;;;19.97;;
11829;SDS011;5972;42.134;24.718;2023-02-28T12:03:33;26.60;;;19.47;;
11829;SDS011;5972;42.134;24.718;2023-02-28T12:06:14;25.73;;;18.93;;
11829;SDS011;5972;42.134;24.718;2023-02-28T12:08:49;32.47;;;20.93;;
11829;SDS011;5972;42.134;24.718;2023-02-28T12:11:30;29.90;;;20.57;;
11829;SDS011;5972;42.134;24.718;2023-02-28T12:14:14;32.43;;;21.87;;
11829;SDS011;5972;42.134;24.718;2023-02-28T12:17:02;31.60;;;24.37;;
11829;SDS011;5972;42.134;24.718;2023-02-28T12:19:34;37.63;;;23.70;;
11829;SDS011;5972;42.134;24.718;2023-02-28T12:22:22;33.80;;;23.83;;
11829;SDS011;5972;42.134;24.718;2023-02-28T12:25:03;40.77;;;23.10;;
11829;SDS011;5972;42.134;24.718;2023-02-28T12:27:47;34.33;;;26.00;;
11829;SDS011;5972;42.134;24.718;2023-02-28T12:30:16;35.50;;;23.60;;
11829;SDS011;5972;42.134;24.718;2023-02-28T12:32:46;40.23;;;25.90;;
11829;SDS011;5972;42.134;24.718;2023-02-28T12:35:16;38.87;;;26.20;;
11829;SDS011;5972;42.134;24.718;2023-02-28T12:37:49;36.53;;;24.50;;
11829;SDS011;5972;42.134;24.718;2023-02-28T12:40:22;32.60;;;23.97;;
11829;SDS011;5972;42.134;24.718;2023-02-28T12:42:51;36.10;;;25.20;;
11829;SDS011;5972;42.134;24.718;2023-02-28T12:45:23;43.17;;;29.07;;
11829;SDS011;5972;42.134;24.718;2023-02-28T12:47:52;39.60;;;27.27;;
11829;SDS011;5972;42.134;24.718;2023-02-28T12:50:26;28.43;;;19.63;;
11829;SDS011;5972;42.134;24.718;2023-02-28T12:52:58;40.17;;;25.20;;
11829;SDS011;5972;42.134;24.718;2023-02-28T12:55:31;40.10;;;26.73;;
11829;SDS011;5972;42.134;24.718;2023-02-28T12:58:11;36.97;;;27.13;;
11829;SDS011;5972;42.134;24.718;2023-02-28T13:00:49;37.37;;;26.53;;
11829;SDS011;5972;42.134;24.718;2023-02-28T13:03:45;34.83;;;25.97;;
11829;SDS011;5972;42.134;24.718;2023-02-28T13:06:52;39.93;;;28.30;;
11829;SDS011;5972;42.134;24.718;2023-02-28T13:09:36;54.27;;;32.00;;
11829;SDS011;5972;42.134;24.718;2023-02-28T13:12:13;42.17;;;28.43;;
11829;SDS011;5972;42.134;24.718;2023-02-28T13:14:41;39.43;;;28.10;;
11829;SDS011;5972;42.134;24.718;2023-02-28T13:17:13;35.10;;;24.17;;
11829;SDS011;5972;42.134;24.718;2023-02-28T13:19:45;47.37;;;29.90;;
11829;SDS011;5972;42.134;24.718;2023-02-28T13:22:36;45.10;;;29.33;;
11829;SDS011;5972;42.134;24.718;2023-02-28T13:31:32;36.67;;;26.07;;
11829;SDS011;5972;42.134;24.718;2023-02-28T13:34:15;37.50;;;24.30;;
11829;SDS011;5972;42.134;24.718;2023-02-28T13:36:42;35.80;;;26.83;;
11829;SDS011;5972;42.134;24.718;2023-02-28T13:42:34;34.93;;;25.77;;
11829;SDS011;5972;42.134;24.718;2023-02-28T13:45:22;34.63;;;26.03;;
11829;SDS011;5972;42.134;24.718;2023-02-28T13:47:53;34.13;;;22.80;;
11829;SDS011;5972;42.134;24.718;2023-02-28T13:50:29;33.60;;;23.93;;
11829;SDS011;5972;42.134;24.718;2023-02-28T13:56:22;34.43;;;24.60;;
11829;SDS011;5972;42.134;24.718;2023-02-28T13:58:59;31.33;;;24.90;;
11829;SDS011;5972;42.134;24.718;2023-02-28T14:01:45;35.70;;;23.23;;
11829;SDS011;5972;42.134;24.718;2023-02-28T14:07:21;36.30;;;25.97;;
11829;SDS011;5972;42.134;24.718;2023-02-28T14:09:53;37.30;;;25.47;;
11829;SDS011;5972;42.134;24.718;2023-02-28T14:15:47;35.87;;;23.27;;
11829;SDS011;5972;42.134;24.718;2023-02-28T14:18:25;30.10;;;23.83;;
11829;SDS011;5972;42.134;24.718;2023-02-28T14:20:59;30.43;;;21.50;;
11829;SDS011;5972;42.134;24.718;2023-02-28T14:23:39;35.57;;;25.13;;
11829;SDS011;5972;42.134;24.718;2023-02-28T14:26:26;33.37;;;24.00;;
11829;SDS011;5972;42.134;24.718;2023-02-28T14:29:07;38.80;;;23.33;;
11829;SDS011;5972;42.134;24.718;2023-02-28T14:31:45;29.70;;;21.33;;
11829;SDS011;5972;42.134;24.718;2023-02-28T14:34:26;29.10;;;21.20;;
11829;SDS011;5972;42.134;24.718;2023-02-28T14:37:05;29.00;;;19.80;;
11829;SDS011;5972;42.134;24.718;2023-02-28T14:39:33;25.90;;;18.80;;
11829;SDS011;5972;42.134;24.718;2023-02-28T14:42:02;20.70;;;16.87;;
11829;SDS011;5972;42.134;24.718;2023-02-28T14:44:30;25.07;;;19.17;;
11829;SDS011;5972;42.134;24.718;2023-02-28T14:46:57;23.13;;;19.10;;
11829;SDS011;5972;42.134;24.718;2023-02-28T14:49:30;24.87;;;19.00;;
11829;SDS011;5972;42.134;24.718;2023-02-28T14:52:02;21.37;;;16.30;;
11829;SDS011;5972;42.134;24.718;2023-02-28T14:54:36;20.97;;;15.70;;
11829;SDS011;5972;42.134;24.718;2023-02-28T14:57:03;26.10;;;18.07;;
11829;SDS011;5972;42.134;24.718;2023-02-28T14:59:31;23.73;;;18.93;;
11829;SDS011;5972;42.134;24.718;2023-02-28T15:02:15;26.90;;;19.50;;
11829;SDS011;5972;42.134;24.718;2023-02-28T15:04:43;19.23;;;15.57;;
11829;SDS011;5972;42.134;24.718;2023-02-28T15:07:21;23.00;;;17.90;;
11829;SDS011;5972;42.134;24.718;2023-02-28T15:10:06;21.97;;;17.70;;
11829;SDS011;5972;42.134;24.718;2023-02-28T15:12:34;21.97;;;17.70;;
11829;SDS011;5972;42.134;24.718;2023-02-28T15:15:02;22.97;;;17.80;;
11829;SDS011;5972;42.134;24.718;2023-02-28T15:17:29;27.63;;;19.10;;
11829;SDS011;5972;42.134;24.718;2023-02-28T15:19:56;25.60;;;21.13;;